Time;durP1;ratioP1;P1;durP2;ratioP2;P2;SDS_P1;SDS_P2;PMS_P1;PMS_P2;Temp;Humidity;BMP_temperature;BMP_pressure;BME280_temperature;BME280_humidity;BME280_pressure;Samples;Min_cycle;Max_cycle;Signal;HPM_P1;HPM_P2
2022/08/08 07:03:52;;;;;;;2.22;1.95;;;;;21.50;94739.00;;;;7236450;19;9928870;-75
2022/08/08 07:06:58;;;;;;;2.10;1.80;;;;;21.70;94740.00;;;;7398290;19;21063;-75
2022/08/08 07:09:56;;;;;;;2.40;1.80;;;;;21.90;94738.00;;;;7398408;19;20143;-77
2022/08/08 07:12:57;;;;;;;2.35;1.90;;;;;22.20;94743.00;;;;7399904;19;20156;-77
2022/08/08 07:15:51;;;;;;;2.20;2.00;;;;;22.30;94738.00;;;;7398482;19;20125;-77
2022/08/08 07:19:05;;;;;;;2.10;1.90;;;;;22.60;94739.00;;;;7390241;19;20152;-75
2022/08/08 07:21:49;;;;;;;2.90;2.03;;;;;22.60;94748.00;;;;7395645;19;20156;-76
2022/08/08 07:24:42;;;;;;;4.20;2.03;;;;;23.00;94742.00;;;;7394210;19;20663;-76
2022/08/08 07:27:15;;;;;;;2.70;2.20;;;;;23.40;94745.00;;;;7387868;19;20149;-77
2022/08/08 07:30:13;;;;;;;2.40;2.20;;;;;23.40;94745.00;;;;7392874;19;20155;-76
2022/08/08 07:32:53;;;;;;;2.60;2.13;;;;;23.70;94741.00;;;;7393810;19;20654;-76
2022/08/08 07:35:28;;;;;;;4.18;2.78;;;;;23.60;94751.00;;;;7393037;19;20626;-74
2022/08/08 07:37:58;;;;;;;2.08;1.98;;;;;23.60;94744.00;;;;7392754;19;20152;-74
2022/08/08 07:40:38;;;;;;;2.80;2.17;;;;;23.80;94752.00;;;;7393238;19;20559;-74
2022/08/08 07:43:14;;;;;;;2.55;2.10;;;;;23.70;94760.00;;;;7390335;19;20175;-77
2022/08/08 07:45:43;;;;;;;2.33;2.13;;;;;23.70;94751.00;;;;7394815;19;20144;-75
2022/08/08 07:48:31;;;;;;;2.13;2.00;;;;;23.70;94750.00;;;;7389829;19;20611;-77
2022/08/08 07:51:10;;;;;;;4.22;2.20;;;;;23.40;94762.00;;;;7389559;19;20208;-77
2022/08/08 07:54:19;;;;;;;3.03;1.95;;;;;23.30;94763.00;;;;7394848;19;20599;-78
2022/08/08 07:57:07;;;;;;;2.38;2.08;;;;;23.30;94766.00;;;;7397522;19;20603;-77
2022/08/08 08:00:04;;;;;;;1.80;1.70;;;;;23.60;94769.00;;;;7394670;19;20607;-77
2022/08/08 08:03:06;;;;;;;3.67;1.83;;;;;23.80;94769.00;;;;7396161;19;20176;-77
2022/08/08 08:05:54;;;;;;;3.60;1.92;;;;;24.00;94769.00;;;;7391876;19;20197;-78
2022/08/08 08:08:40;;;;;;;2.20;2.00;;;;;23.90;94765.00;;;;7392713;19;20539;-77
2022/08/08 08:11:22;;;;;;;2.08;1.88;;;;;24.30;94776.00;;;;7391866;19;20133;-77
2022/08/08 08:14:26;;;;;;;2.80;1.50;;;;;24.60;94769.00;;;;7392146;19;20149;-75
2022/08/08 08:16:57;;;;;;;4.97;2.00;;;;;24.70;94777.00;;;;7396022;19;20152;-75
2022/08/08 08:19:35;;;;;;;3.97;2.17;;;;;24.90;94769.00;;;;7393653;19;20160;-76
2022/08/08 08:22:17;;;;;;;2.92;2.05;;;;;25.20;94767.00;;;;7391800;19;20172;-76
2022/08/08 08:25:00;;;;;;;2.00;1.85;;;;;25.40;94767.00;;;;7397028;19;20156;-75
2022/08/08 08:27:34;;;;;;;3.15;1.90;;;;;25.50;94771.00;;;;7397569;19;20195;-77
2022/08/08 08:30:13;;;;;;;3.70;1.95;;;;;25.40;94775.00;;;;7400469;19;20611;-77
2022/08/08 08:32:42;;;;;;;1.77;1.60;;;;;25.60;94778.00;;;;7396655;19;20168;-76
2022/08/08 08:35:18;;;;;;;2.95;1.90;;;;;25.70;94778.00;;;;7396597;19;20189;-77
2022/08/08 08:37:56;;;;;;;2.47;1.77;;;;;25.60;94778.00;;;;7398846;19;20152;-76
2022/08/08 08:40:45;;;;;;;2.30;1.80;;;;;25.90;94776.00;;;;7395773;19;20149;-74
2022/08/08 08:43:18;;;;;;;2.55;1.58;;;;;24.80;94780.00;;;;7397738;19;20141;-77
2022/08/08 08:45:56;;;;;;;1.85;1.75;;;;;25.00;94777.00;;;;7395394;19;20592;-76
2022/08/08 08:48:24;;;;;;;2.03;1.60;;;;;25.60;94773.00;;;;7396183;19;20136;-75
2022/08/08 08:50:53;;;;;;;1.35;1.25;;;;;25.80;94774.00;;;;7395316;19;20603;-74
2022/08/08 08:53:35;;;;;;;1.92;1.40;;;;;26.10;94770.00;;;;7397237;19;20152;-75
2022/08/08 08:56:24;;;;;;;1.65;1.38;;;;;26.20;94775.00;;;;7395935;19;20162;-77
2022/08/08 08:59:00;;;;;;;4.00;1.67;;;;;26.40;94772.00;;;;7398545;19;20140;-78
2022/08/08 09:01:33;;;;;;;2.78;1.65;;;;;26.50;94770.00;;;;7395900;19;20137;-76
2022/08/08 09:04:28;;;;;;;4.15;1.80;;;;;26.40;94776.00;;;;7393985;19;20182;-76
2022/08/08 09:07:08;;;;;;;3.45;1.67;;;;;26.60;94782.00;;;;7396004;19;20602;-76
2022/08/08 09:09:47;;;;;;;2.55;1.60;;;;;26.70;94774.00;;;;7395104;19;20603;-78
2022/08/08 09:12:26;;;;;;;3.97;1.58;;;;;26.90;94782.00;;;;7396200;19;20598;-75
2022/08/08 09:15:01;;;;;;;2.03;1.60;;;;;27.10;94781.00;;;;7386363;19;20200;-76
2022/08/08 09:17:33;;;;;;;1.40;1.30;;;;;27.00;94787.00;;;;7388569;19;20155;-78
2022/08/08 09:20:24;;;;;;;1.38;1.10;;;;;27.10;94790.00;;;;7384386;19;20148;-78
2022/08/08 09:23:16;;;;;;;2.97;1.60;;;;;27.00;94787.00;;;;7388464;19;20135;-78
2022/08/08 09:26:32;;;;;;;2.42;1.42;;;;;26.70;94787.00;;;;7386968;19;20151;-77
2022/08/08 09:29:07;;;;;;;1.95;1.60;;;;;27.00;94788.00;;;;7386385;19;20136;-76
2022/08/08 09:32:06;;;;;;;2.72;1.80;;;;;27.30;94782.00;;;;7386136;19;20128;-75
2022/08/08 09:34:46;;;;;;;3.72;1.52;;;;;27.20;94787.00;;;;7386822;19;20523;-77
2022/08/08 09:37:28;;;;;;;4.10;1.80;;;;;27.30;94789.00;;;;7381166;19;20568;-78
2022/08/08 09:40:18;;;;;;;2.58;1.55;;;;;27.40;94778.00;;;;7384020;19;20159;-78
2022/08/08 09:43:29;;;;;;;2.95;1.65;;;;;27.50;94783.00;;;;7384567;19;20583;-77
2022/08/08 09:46:20;;;;;;;3.60;1.70;;;;;27.20;94773.00;;;;7386857;19;20509;-77
2022/08/08 09:49:01;;;;;;;2.63;1.50;;;;;27.40;94785.00;;;;7386356;19;20208;-75
2022/08/08 09:51:54;;;;;;;1.80;1.50;;;;;27.70;94785.00;;;;7384558;19;20145;-76
2022/08/08 09:54:43;;;;;;;3.60;1.60;;;;;28.10;94784.00;;;;7386404;19;20143;-75
2022/08/08 09:57:26;;;;;;;1.52;1.33;;;;;27.90;94785.00;;;;7387906;19;20148;-76
2022/08/08 10:00:15;;;;;;;3.35;1.60;;;;;27.30;94775.00;;;;7383372;19;20591;-77
2022/08/08 10:03:04;;;;;;;1.75;1.45;;;;;26.90;94779.00;;;;7383517;19;20528;-77
2022/08/08 10:05:47;;;;;;;6.10;1.58;;;;;27.30;94786.00;;;;7384779;19;20649;-75
2022/08/08 10:08:16;;;;;;;3.75;1.55;;;;;27.70;94782.00;;;;7386195;19;20159;-75
2022/08/08 10:10:57;;;;;;;2.40;1.65;;;;;28.10;94782.00;;;;7390044;19;20141;-77
2022/08/08 10:13:31;;;;;;;1.95;1.38;;;;;28.20;94774.00;;;;7392648;19;20150;-74
2022/08/08 10:16:09;;;;;;;1.50;1.40;;;;;28.00;94785.00;;;;7397577;19;20152;-75
2022/08/08 10:18:38;;;;;;;2.15;1.55;;;;;28.00;94776.00;;;;7395658;19;20621;-76
2022/08/08 10:21:16;;;;;;;3.80;1.55;;;;;28.40;94773.00;;;;7393387;19;20160;-75
2022/08/08 10:23:56;;;;;;;1.58;1.40;;;;;28.60;94772.00;;;;7397464;19;20177;-76
2022/08/08 10:26:50;;;;;;;1.60;1.50;;;;;28.60;94766.00;;;;7394591;19;20614;-76
2022/08/08 10:29:51;;;;;;;1.63;1.38;;;;;28.50;94782.00;;;;7391941;19;20153;-77
2022/08/08 10:32:40;;;;;;;10.98;1.40;;;;;27.90;94779.00;;;;7394470;19;20162;-76
2022/08/08 10:35:20;;;;;;;1.52;1.40;;;;;28.40;94778.00;;;;7398427;19;20129;-76
2022/08/08 10:38:15;;;;;;;1.60;1.50;;;;;28.30;94796.00;;;;7391305;19;20129;-78
2022/08/08 10:40:49;;;;;;;2.88;1.48;;;;;28.20;94772.00;;;;7396024;19;20136;-77
2022/08/08 10:43:35;;;;;;;2.28;1.50;;;;;28.60;94769.00;;;;7390741;19;20169;-76
2022/08/08 10:46:03;;;;;;;2.97;1.30;;;;;28.90;94773.00;;;;7392317;19;20150;-75
2022/08/08 10:48:57;;;;;;;3.15;1.70;;;;;29.60;94774.00;;;;7390363;19;20159;-78
2022/08/08 10:51:28;;;;;;;1.65;1.48;;;;;29.60;94775.00;;;;7388337;19;20477;-75
2022/08/08 10:54:21;;;;;;;3.85;1.50;;;;;29.70;94779.00;;;;7392244;19;20156;-75
2022/08/08 10:56:58;;;;;;;3.60;1.40;;;;;29.00;94784.00;;;;7391234;19;20524;-76
2022/08/08 10:59:35;;;;;;;2.40;1.30;;;;;29.30;94778.00;;;;7389468;19;20725;-75
2022/08/08 11:02:07;;;;;;;3.97;1.65;;;;;29.10;94769.00;;;;7392418;19;20170;-78
2022/08/08 11:04:52;;;;;;;3.33;1.45;;;;;29.70;94768.00;;;;7391596;19;20149;-79
2022/08/08 11:07:47;;;;;;;2.88;1.63;;;;;29.40;94768.00;;;;7393486;19;20133;-76
2022/08/08 11:10:42;;;;;;;2.95;1.60;;;;;29.20;94770.00;;;;7388168;19;20155;-76
2022/08/08 11:13:18;;;;;;;2.20;1.55;;;;;28.80;94763.00;;;;7390319;19;20532;-75
2022/08/08 11:15:56;;;;;;;2.17;1.50;;;;;29.10;94774.00;;;;7388000;19;20149;-76
2022/08/08 11:18:35;;;;;;;2.22;1.40;;;;;29.60;94759.00;;;;7388683;19;20160;-75
2022/08/08 11:21:13;;;;;;;7.45;1.42;;;;;29.20;94774.00;;;;7391413;19;20167;-78
2022/08/08 11:23:48;;;;;;;1.60;1.50;;;;;29.30;94769.00;;;;7388452;19;20132;-77
2022/08/08 11:26:30;;;;;;;2.60;1.60;;;;;29.20;94764.00;;;;7390165;19;20228;-75
2022/08/08 11:29:03;;;;;;;8.45;1.70;;;;;29.40;94765.00;;;;7386714;19;20157;-76
2022/08/08 11:31:47;;;;;;;1.70;1.50;;;;;29.70;94762.00;;;;7391099;19;20143;-77
2022/08/08 11:34:17;;;;;;;1.63;1.33;;;;;29.70;94763.00;;;;7390765;19;20160;-77
2022/08/08 11:37:11;;;;;;;5.63;1.60;;;;;29.60;94768.00;;;;7387952;19;20140;-77
2022/08/08 11:39:42;;;;;;;1.95;1.80;;;;;29.80;94770.00;;;;7389010;19;20155;-79
2022/08/08 11:42:25;;;;;;;8.68;1.65;;;;;29.90;94770.00;;;;7386624;19;20164;-74
2022/08/08 11:44:54;;;;;;;5.28;1.70;;;;;30.20;94763.00;;;;7386822;19;20238;-78
2022/08/08 11:47:28;;;;;;;1.67;1.58;;;;;30.00;94764.00;;;;7389498;19;20151;-76
2022/08/08 11:50:09;;;;;;;1.60;1.50;;;;;29.80;94759.00;;;;7387206;19;20152;-76
2022/08/08 11:52:51;;;;;;;3.28;1.40;;;;;30.00;94764.00;;;;7392983;19;20227;-77
2022/08/08 11:55:27;;;;;;;2.75;1.63;;;;;30.30;94758.00;;;;7393780;19;20128;-76
2022/08/08 11:58:11;;;;;;;3.22;1.75;;;;;30.00;94753.00;;;;7389613;19;20670;-78
2022/08/08 12:00:57;;;;;;;3.72;1.50;;;;;29.90;94750.00;;;;7395976;19;20522;-78
2022/08/08 12:03:49;;;;;;;4.40;1.58;;;;;30.30;94747.00;;;;7393586;19;20172;-78
2022/08/08 12:06:23;;;;;;;3.40;2.00;;;;;30.20;94742.00;;;;7391238;19;20614;-77
2022/08/08 12:09:08;;;;;;;2.65;1.58;;;;;29.40;94734.00;;;;7390755;19;20167;-78
2022/08/08 12:11:43;;;;;;;3.35;2.03;;;;;28.90;94746.00;;;;7391870;19;20168;-79
2022/08/08 12:14:24;;;;;;;5.18;2.10;;;;;29.50;94743.00;;;;7398283;19;20130;-78
2022/08/08 12:16:56;;;;;;;3.20;1.60;;;;;29.90;94748.00;;;;7387746;19;20630;-77
2022/08/08 12:19:30;;;;;;;2.90;2.08;;;;;30.10;94733.00;;;;7393398;19;20156;-77
2022/08/08 12:22:17;;;;;;;2.30;1.92;;;;;30.10;94733.00;;;;7395810;19;20156;-76
2022/08/08 12:24:58;;;;;;;2.97;1.63;;;;;29.80;94749.00;;;;7396198;19;20456;-77
2022/08/08 12:27:37;;;;;;;1.90;1.80;;;;;30.00;94737.00;;;;7390105;19;20714;-77
2022/08/08 12:30:14;;;;;;;2.15;1.60;;;;;30.40;94744.00;;;;7392535;19;20140;-76
2022/08/08 12:32:53;;;;;;;3.63;1.70;;;;;30.20;94743.00;;;;7392740;19;20235;-78
2022/08/08 12:35:40;;;;;;;2.75;1.83;;;;;29.90;94742.00;;;;7391789;19;20171;-77
2022/08/08 12:38:19;;;;;;;7.90;1.90;;;;;30.20;94735.00;;;;7394012;19;20133;-76
2022/08/08 12:40:57;;;;;;;2.10;1.65;;;;;30.10;94735.00;;;;7394912;19;20173;-78
2022/08/08 12:43:45;;;;;;;1.80;1.70;;;;;30.20;94744.00;;;;7394069;19;20467;-76
2022/08/08 12:46:27;;;;;;;3.05;1.80;;;;;30.30;94737.00;;;;7391861;19;20140;-75
2022/08/08 12:48:57;;;;;;;3.22;2.08;;;;;30.20;94747.00;;;;7390124;19;20173;-77
2022/08/08 12:51:52;;;;;;;2.13;1.80;;;;;30.10;94740.00;;;;7390095;19;20216;-77
2022/08/08 12:54:36;;;;;;;3.00;1.80;;;;;29.60;94739.00;;;;7393066;19;20155;-77
2022/08/08 12:57:15;;;;;;;4.97;2.10;;;;;29.90;94739.00;;;;7394187;19;20651;-79
2022/08/08 12:59:51;;;;;;;2.45;1.60;;;;;30.10;94741.00;;;;7393547;19;20632;-78
2022/08/08 13:02:35;;;;;;;3.05;2.03;;;;;30.40;94744.00;;;;7391337;19;20646;-76
2022/08/08 13:05:14;;;;;;;4.00;1.80;;;;;30.30;94746.00;;;;7391090;19;20709;-76
2022/08/08 13:07:50;;;;;;;2.22;1.77;;;;;30.60;94743.00;;;;7392136;19;20158;-77
2022/08/08 13:10:34;;;;;;;3.65;1.80;;;;;30.60;94743.00;;;;7395455;19;20138;-77
2022/08/08 13:13:29;;;;;;;4.82;1.85;;;;;30.30;94747.00;;;;7393911;19;20655;-78
2022/08/08 13:16:23;;;;;;;6.88;1.90;;;;;30.20;94739.00;;;;7393279;19;20144;-79
2022/08/08 13:18:57;;;;;;;3.30;1.67;;;;;29.90;94740.00;;;;7392847;19;20140;-75
2022/08/08 13:21:42;;;;;;;6.20;2.15;;;;;30.60;94740.00;;;;7391854;19;20600;-77
2022/08/08 13:24:35;;;;;;;2.83;1.70;;;;;30.30;94737.00;;;;7395015;19;20184;-76
2022/08/08 13:27:15;;;;;;;6.60;1.85;;;;;30.10;94747.00;;;;7394119;19;20152;-77
2022/08/08 13:30:05;;;;;;;2.65;1.70;;;;;30.20;94733.00;;;;7394027;19;20121;-76
2022/08/08 13:32:37;;;;;;;3.60;1.90;;;;;30.00;94735.00;;;;7391641;19;20160;-77
2022/08/08 13:35:11;;;;;;;7.90;2.00;;;;;30.30;94741.00;;;;7391315;19;20133;-77
2022/08/08 13:38:01;;;;;;;4.28;1.40;;;;;30.60;94733.00;;;;7393889;19;20133;-77
2022/08/08 13:40:42;;;;;;;5.82;1.70;;;;;30.60;94731.00;;;;7391926;19;20124;-77
2022/08/08 13:43:15;;;;;;;5.00;1.90;;;;;30.20;94725.00;;;;7391320;19;20497;-78
2022/08/08 13:45:52;;;;;;;2.72;1.60;;;;;30.30;94733.00;;;;7390793;19;20132;-76
2022/08/08 13:48:20;;;;;;;4.20;1.70;;;;;30.10;94725.00;;;;7392402;19;20162;-79
2022/08/08 13:50:52;;;;;;;1.70;1.52;;;;;29.90;94729.00;;;;7402257;19;20606;-77
2022/08/08 13:53:51;;;;;;;2.60;1.67;;;;;29.90;94740.00;;;;7402773;19;20532;-77
2022/08/08 13:56:36;;;;;;;3.78;1.58;;;;;29.90;94724.00;;;;7400158;19;20512;-77
2022/08/08 14:03:01;;;;;;;2.75;1.50;;;;;29.60;94730.00;;;;7401048;19;20145;-77
2022/08/08 14:06:09;;;;;;;4.80;1.98;;;;;29.30;94720.00;;;;7397082;19;20517;-75
2022/08/08 14:08:57;;;;;;;3.88;1.80;;;;;29.30;94720.00;;;;7394753;19;20528;-75
2022/08/08 14:11:59;;;;;;;5.22;1.60;;;;;29.60;94726.00;;;;7393066;19;20139;-76
2022/08/08 14:14:40;;;;;;;2.05;1.65;;;;;29.40;94734.00;;;;7398017;19;20141;-76
2022/08/08 14:17:17;;;;;;;2.83;1.58;;;;;29.40;94718.00;;;;7401993;19;20153;-79
2022/08/08 14:20:07;;;;;;;2.25;1.60;;;;;29.40;94726.00;;;;7396057;19;20595;-78
2022/08/08 14:23:07;;;;;;;2.83;1.70;;;;;29.10;94726.00;;;;7397420;19;20144;-76
2022/08/08 14:25:49;;;;;;;1.65;1.55;;;;;29.30;94716.00;;;;7397915;19;20180;-77
2022/08/08 14:28:58;;;;;;;2.08;1.60;;;;;29.50;94718.00;;;;7397781;19;20621;-76
2022/08/08 14:31:26;;;;;;;2.70;1.60;;;;;29.20;94723.00;;;;7395672;19;20128;-75
2022/08/08 14:34:20;;;;;;;3.00;1.70;;;;;29.00;94727.00;;;;7397292;19;20221;-76
2022/08/08 14:36:56;;;;;;;3.47;1.63;;;;;29.10;94724.00;;;;7401720;19;20133;-77
2022/08/08 14:39:41;;;;;;;3.63;1.60;;;;;28.90;94723.00;;;;7398307;19;20151;-77
2022/08/08 14:42:24;;;;;;;1.60;1.50;;;;;29.00;94716.00;;;;7396022;19;20614;-77
2022/08/08 14:45:14;;;;;;;3.80;1.52;;;;;29.20;94716.00;;;;7398039;19;20171;-78
2022/08/08 14:47:50;;;;;;;3.72;1.60;;;;;29.00;94712.00;;;;7396555;19;20620;-76
2022/08/08 14:50:47;;;;;;;1.67;1.50;;;;;28.70;94715.00;;;;7389401;19;20718;-75
2022/08/08 14:53:16;;;;;;;2.75;1.55;;;;;28.60;94715.00;;;;7397521;19;20468;-76
2022/08/08 14:55:52;;;;;;;5.05;1.73;;;;;28.80;94722.00;;;;7395765;19;20231;-78
2022/08/08 14:58:30;;;;;;;2.08;1.80;;;;;28.50;94714.00;;;;7397444;19;20606;-78
2022/08/08 15:01:05;;;;;;;2.75;1.60;;;;;28.60;94713.00;;;;7390235;19;20157;-76
2022/08/08 15:03:49;;;;;;;3.33;1.70;;;;;28.60;94718.00;;;;7396668;19;20152;-78
2022/08/08 15:06:42;;;;;;;1.45;1.35;;;;;28.40;94716.00;;;;7398960;19;20187;-76
2022/08/08 15:09:15;;;;;;;2.95;1.80;;;;;28.20;94710.00;;;;7399290;19;20254;-78
2022/08/08 15:11:51;;;;;;;4.65;1.80;;;;;28.00;94711.00;;;;7397484;19;20252;-78
2022/08/08 15:17:53;;;;;;;3.45;1.83;;;;;28.10;94716.00;;;;7383086;19;20147;-77
2022/08/08 15:20:28;;;;;;;2.97;1.40;;;;;28.30;94713.00;;;;7394236;19;20179;-78
2022/08/08 15:22:58;;;;;;;4.00;1.40;;;;;28.50;94716.00;;;;7387293;19;20144;-78
2022/08/08 15:25:28;;;;;;;4.90;1.98;;;;;28.50;94716.00;;;;7396482;19;20133;-77
2022/08/08 15:28:08;;;;;;;3.40;1.60;;;;;28.10;94711.00;;;;7397453;19;20152;-77
2022/08/08 15:30:56;;;;;;;4.07;1.70;;;;;28.20;94712.00;;;;7392788;19;20622;-77
2022/08/08 15:33:31;;;;;;;2.15;1.60;;;;;28.20;94712.00;;;;7396883;19;20561;-78
2022/08/08 15:36:18;;;;;;;3.58;1.25;;;;;28.10;94708.00;;;;7396680;19;20152;-79
2022/08/08 15:38:55;;;;;;;1.65;1.52;;;;;28.40;94711.00;;;;7397642;19;20165;-77
2022/08/08 15:41:23;;;;;;;8.07;1.88;;;;;28.30;94709.00;;;;7395655;19;20732;-79
2022/08/08 15:44:03;;;;;;;1.95;1.60;;;;;28.10;94708.00;;;;7395461;19;20152;-78
2022/08/08 15:46:40;;;;;;;3.65;1.73;;;;;28.00;94705.00;;;;7396197;19;20136;-78
2022/08/08 15:49:17;;;;;;;3.42;1.77;;;;;27.80;94717.00;;;;7395246;19;20136;-78
2022/08/08 15:51:55;;;;;;;6.75;1.60;;;;;27.80;94714.00;;;;7396171;19;20144;-79
2022/08/08 15:54:23;;;;;;;2.63;1.58;;;;;27.50;94721.00;;;;7393007;19;20165;-75
2022/08/08 15:57:07;;;;;;;3.00;1.48;;;;;27.50;94707.00;;;;7388724;19;20639;-77
2022/08/08 15:59:43;;;;;;;3.58;1.70;;;;;27.20;94710.00;;;;7387536;19;20213;-77
2022/08/08 16:02:30;;;;;;;4.28;1.60;;;;;27.30;94706.00;;;;7388530;19;20176;-76
2022/08/08 16:05:24;;;;;;;2.83;1.58;;;;;27.20;94708.00;;;;7385964;19;20184;-75
2022/08/08 16:08:03;;;;;;;4.72;1.63;;;;;27.30;94702.00;;;;7388751;19;20627;-78
2022/08/08 16:10:39;;;;;;;2.00;1.50;;;;;27.20;94702.00;;;;7380309;19;20157;-77
2022/08/08 16:13:27;;;;;;;3.88;1.40;;;;;26.90;94704.00;;;;7388186;19;20156;-76
2022/08/08 16:16:13;;;;;;;4.35;1.70;;;;;26.80;94699.00;;;;7387618;19;20659;-78
2022/08/08 16:18:47;;;;;;;3.03;1.70;;;;;26.70;94703.00;;;;7390264;19;20503;-77
2022/08/08 16:21:29;;;;;;;3.17;1.38;;;;;26.70;94700.00;;;;7386412;19;20179;-78
2022/08/08 16:24:06;;;;;;;1.95;1.60;;;;;26.70;94707.00;;;;7388608;19;20595;-78
2022/08/08 16:26:42;;;;;;;3.10;1.55;;;;;26.70;94700.00;;;;7388457;19;20179;-76
2022/08/08 16:29:14;;;;;;;1.67;1.30;;;;;26.50;94704.00;;;;7387713;19;20166;-75
2022/08/08 16:32:05;;;;;;;4.75;1.70;;;;;26.40;94701.00;;;;7392875;19;20133;-75
2022/08/08 16:34:40;;;;;;;5.18;1.50;;;;;26.30;94706.00;;;;7389191;19;20152;-78
2022/08/08 16:37:14;;;;;;;4.72;1.60;;;;;26.30;94699.00;;;;7390339;19;20151;-76
2022/08/08 16:39:42;;;;;;;3.53;1.52;;;;;26.50;94693.00;;;;7388103;19;20156;-79
2022/08/08 16:42:29;;;;;;;1.80;1.27;;;;;26.30;94699.00;;;;7390574;19;20152;-78
2022/08/08 16:45:07;;;;;;;3.08;1.63;;;;;26.20;94710.00;;;;7392564;19;20148;-77
2022/08/08 16:47:54;;;;;;;3.15;1.50;;;;;26.10;94706.00;;;;7393653;19;20132;-75
2022/08/08 16:50:29;;;;;;;4.80;1.30;;;;;26.00;94704.00;;;;7393509;19;20156;-75
2022/08/08 16:52:56;;;;;;;2.15;1.33;;;;;26.00;94704.00;;;;7394112;19;20567;-77
2022/08/08 16:55:44;;;;;;;2.10;1.45;;;;;26.00;94708.00;;;;7388822;19;20151;-77
2022/08/08 16:58:25;;;;;;;2.40;1.48;;;;;25.80;94712.00;;;;7389732;19;20136;-75
2022/08/08 17:01:02;;;;;;;9.65;1.55;;;;;25.70;94708.00;;;;7391346;19;20137;-77
2022/08/08 17:03:38;;;;;;;1.95;1.30;;;;;25.70;94710.00;;;;7387791;19;20627;-75
2022/08/08 17:06:33;;;;;;;3.05;1.40;;;;;25.70;94713.00;;;;7384363;19;20511;-76
2022/08/08 17:09:11;;;;;;;6.38;1.55;;;;;25.60;94715.00;;;;7374604;19;20823;-74
2022/08/08 17:11:45;;;;;;;7.25;1.70;;;;;25.60;94721.00;;;;7387177;19;20503;-79
2022/08/08 17:14:24;;;;;;;3.95;1.40;;;;;25.60;94716.00;;;;7386955;19;20160;-77
2022/08/08 17:16:54;;;;;;;6.63;1.52;;;;;25.50;94715.00;;;;7387861;19;20595;-75
2022/08/08 17:19:31;;;;;;;2.50;1.35;;;;;25.40;94708.00;;;;7387293;19;20520;-76
2022/08/08 17:22:08;;;;;;;1.52;1.33;;;;;25.30;94709.00;;;;7383433;19;20239;-75
2022/08/08 17:24:43;;;;;;;1.90;1.45;;;;;25.20;94717.00;;;;7388090;19;20169;-76
2022/08/08 17:27:23;;;;;;;5.95;1.45;;;;;25.10;94720.00;;;;7386694;19;20614;-75
2022/08/08 17:30:13;;;;;;;2.90;1.25;;;;;25.10;94722.00;;;;7379667;19;21006;-75
2022/08/08 17:32:55;;;;;;;1.63;1.20;;;;;24.90;94716.00;;;;7384765;19;20475;-78
2022/08/08 17:35:49;;;;;;;1.52;1.23;;;;;24.80;94714.00;;;;7384089;19;20156;-76
2022/08/08 17:38:37;;;;;;;1.95;1.33;;;;;24.60;94720.00;;;;7383242;19;20512;-76
2022/08/08 17:41:12;;;;;;;2.97;1.30;;;;;24.40;94725.00;;;;7383751;19;20172;-75
2022/08/08 17:43:46;;;;;;;2.70;1.45;;;;;24.30;94729.00;;;;7387816;19;20148;-73
2022/08/08 17:46:46;;;;;;;1.30;1.20;;;;;24.20;94737.00;;;;7389155;19;20128;-77
2022/08/08 17:49:18;;;;;;;1.70;1.33;;;;;24.00;94737.00;;;;7391681;19;20983;-76
2022/08/08 17:52:09;;;;;;;3.47;1.17;;;;;23.90;94737.00;;;;7387775;19;20155;-76
2022/08/08 17:54:37;;;;;;;1.40;1.30;;;;;23.80;94738.00;;;;7385943;19;20734;-77
2022/08/08 17:57:13;;;;;;;2.03;1.20;;;;;23.70;94736.00;;;;7388574;19;20220;-77
2022/08/08 17:59:41;;;;;;;1.48;1.13;;;;;23.60;94744.00;;;;7389806;19;20608;-78
2022/08/08 18:02:12;;;;;;;1.55;1.20;;;;;23.50;94747.00;;;;7390450;19;20607;-76
2022/08/08 18:05:07;;;;;;;5.28;1.20;;;;;23.50;94743.00;;;;7387238;19;20634;-77
2022/08/08 18:07:49;;;;;;;2.65;1.30;;;;;23.50;94752.00;;;;7388985;19;20133;-77
2022/08/08 18:10:30;;;;;;;3.35;1.10;;;;;23.50;94742.00;;;;7385571;19;20461;-76
2022/08/08 18:13:02;;;;;;;6.30;1.45;;;;;23.40;94752.00;;;;7388636;19;20153;-77
2022/08/08 18:15:42;;;;;;;2.67;1.30;;;;;23.20;94750.00;;;;7387466;19;20152;-77
2022/08/08 18:18:10;;;;;;;2.00;0.95;;;;;23.00;94753.00;;;;7387385;19;20180;-77
2022/08/08 18:20:55;;;;;;;2.67;1.20;;;;;23.00;94748.00;;;;7387710;19;20136;-76
2022/08/08 18:23:29;;;;;;;6.07;1.10;;;;;22.80;94749.00;;;;7389461;19;20167;-76
2022/08/08 18:26:06;;;;;;;3.30;1.20;;;;;22.70;94756.00;;;;7390038;19;20145;-77
2022/08/08 18:28:33;;;;;;;1.30;1.10;;;;;22.60;94758.00;;;;7385621;19;20589;-76
2022/08/08 18:31:21;;;;;;;2.30;1.20;;;;;22.50;94756.00;;;;7386224;19;20188;-76
2022/08/08 18:33:55;;;;;;;2.42;1.20;;;;;22.40;94752.00;;;;7388221;19;20160;-75
2022/08/08 18:36:43;;;;;;;3.53;1.25;;;;;22.30;94759.00;;;;7395711;19;20168;-76
2022/08/08 18:39:18;;;;;;;2.05;1.00;;;;;22.20;94764.00;;;;7395629;19;20136;-77
2022/08/08 18:41:57;;;;;;;2.70;1.17;;;;;22.10;94760.00;;;;7383698;19;20140;-78
2022/08/08 18:44:41;;;;;;;1.48;1.20;;;;;22.10;94756.00;;;;7394218;19;20152;-77
2022/08/08 18:47:26;;;;;;;5.50;1.10;;;;;22.00;94765.00;;;;7388251;19;20137;-76
2022/08/08 18:50:02;;;;;;;1.27;1.13;;;;;21.80;94766.00;;;;7390941;19;20603;-78
2022/08/08 18:52:33;;;;;;;1.30;1.20;;;;;21.70;94761.00;;;;7393230;19;20167;-76
2022/08/08 18:55:09;;;;;;;1.48;1.00;;;;;21.60;94774.00;;;;7395995;19;20498;-74
2022/08/08 18:57:40;;;;;;;2.17;1.10;;;;;21.70;94776.00;;;;7385306;19;20155;-74
2022/08/08 19:00:19;;;;;;;2.13;1.13;;;;;21.60;94788.00;;;;7388612;19;20156;-79
2022/08/08 19:02:54;;;;;;;1.02;1.00;;;;;21.60;94786.00;;;;7388587;19;20172;-79
2022/08/08 19:05:40;;;;;;;2.08;1.20;;;;;21.60;94790.00;;;;7383540;19;20176;-77
2022/08/08 19:08:12;;;;;;;1.58;1.00;;;;;21.60;94797.00;;;;7392370;19;20129;-76
2022/08/08 19:10:56;;;;;;;1.27;0.90;;;;;21.30;94800.00;;;;7392862;19;20149;-76
2022/08/08 19:13:26;;;;;;;1.23;1.00;;;;;21.30;94805.00;;;;7391278;19;20528;-77
2022/08/08 19:16:21;;;;;;;2.10;1.20;;;;;21.10;94811.00;;;;7390350;19;20598;-77
2022/08/08 19:18:55;;;;;;;1.48;0.98;;;;;21.10;94812.00;;;;7390232;19;20789;-78
2022/08/08 19:21:39;;;;;;;2.05;1.10;;;;;21.00;94824.00;;;;7375962;19;20223;-78
2022/08/08 19:24:17;;;;;;;1.27;1.10;;;;;20.90;94823.00;;;;7391575;19;20471;-78
2022/08/08 19:27:11;;;;;;;4.47;1.10;;;;;20.80;94824.00;;;;7390411;19;20609;-77
2022/08/08 19:29:42;;;;;;;1.10;1.00;;;;;20.70;94826.00;;;;7390246;19;20627;-77
2022/08/08 19:32:20;;;;;;;2.92;1.08;;;;;20.60;94831.00;;;;7390648;19;20137;-77
2022/08/08 19:34:51;;;;;;;4.10;1.30;;;;;20.70;94829.00;;;;7391168;19;20152;-77
2022/08/08 19:37:29;;;;;;;1.13;1.00;;;;;20.70;94834.00;;;;7390831;19;20140;-76
2022/08/08 19:40:14;;;;;;;3.65;1.35;;;;;20.70;94832.00;;;;7389047;19;20575;-75
2022/08/08 19:42:59;;;;;;;1.98;1.20;;;;;20.50;94826.00;;;;7387727;19;20156;-78
2022/08/08 19:45:28;;;;;;;2.40;1.20;;;;;20.40;94838.00;;;;7387294;19;20184;-76
2022/08/08 19:48:23;;;;;;;1.42;1.00;;;;;20.40;94836.00;;;;7386866;19;20173;-77
2022/08/08 19:50:59;;;;;;;3.50;1.33;;;;;20.30;94844.00;;;;7388203;19;20156;-77
2022/08/08 19:53:33;;;;;;;1.45;1.00;;;;;20.30;94846.00;;;;7388157;19;20598;-77
2022/08/08 19:56:21;;;;;;;4.43;1.10;;;;;20.30;94843.00;;;;7389055;19;20155;-78
2022/08/08 19:59:09;;;;;;;2.28;1.10;;;;;20.20;94846.00;;;;7388023;19;20518;-77
2022/08/08 20:01:39;;;;;;;1.50;0.93;;;;;20.20;94838.00;;;;7385410;19;20152;-78
2022/08/08 20:04:33;;;;;;;3.35;1.00;;;;;20.10;94846.00;;;;7389333;19;20205;-77
2022/08/08 20:07:13;;;;;;;3.40;1.30;;;;;20.00;94844.00;;;;7385877;19;20243;-77
2022/08/08 20:10:08;;;;;;;2.35;1.08;;;;;20.00;94843.00;;;;7388348;19;20184;-77
2022/08/08 20:12:38;;;;;;;5.18;1.17;;;;;19.90;94835.00;;;;7387174;19;20985;-77
2022/08/08 20:15:33;;;;;;;1.83;1.20;;;;;19.90;94844.00;;;;7387992;19;20672;-77
2022/08/08 20:18:21;;;;;;;0.90;0.90;;;;;19.90;94842.00;;;;7389079;19;20125;-77
2022/08/08 20:21:16;;;;;;;2.55;1.08;;;;;19.80;94845.00;;;;7384103;19;20149;-78
2022/08/08 20:23:54;;;;;;;3.40;1.50;;;;;19.80;94838.00;;;;7390452;19;20523;-77
2022/08/08 20:26:30;;;;;;;2.83;1.00;;;;;19.80;94841.00;;;;7391093;19;20512;-76
2022/08/08 20:29:02;;;;;;;4.20;1.13;;;;;19.90;94837.00;;;;7386482;19;20173;-76
2022/08/08 20:31:37;;;;;;;2.97;1.10;;;;;19.80;94837.00;;;;7384941;19;20139;-78
2022/08/08 20:34:25;;;;;;;4.10;1.27;;;;;19.70;94835.00;;;;7389934;19;20950;-78
2022/08/08 20:37:03;;;;;;;1.50;1.00;;;;;19.60;94846.00;;;;7384513;19;20144;-77
2022/08/08 20:39:33;;;;;;;1.48;0.90;;;;;19.50;94838.00;;;;7384439;19;20141;-77